R\V LIBERTY — WYL5177 — position and weather

sailwx.info

Track history (hours):
 
Tides and Currents Weather Stations Pressure Air Temp Water Temp Dewpoint Dewpoint Depression Visibility Wind Speed Wind Dir Waves Ship Positions

Oceanographic research ship R\V LIBERTY (United States)

Owner: KING COUNTY ENVIRONMENTAL LAB, SEATTLE, WA. More information available from US FCC via Universal Licensing System and Coast Guard Vessel Documentation Center.

Last reported at 2018-Mar-19 21:00 UTC. Time now 2018-May-28 01:29 UTC.
Position N 48°30' W 122°36'.
Warning: this ship's position is months out of date.

Length 15 m; draft 2 m.

Type: Pollution control. MMSI: 367067030.

Date/timePositionNaut miles runAvg speedWind from/ knotsBaromVisibWave heightAir tempDewpointWater temp
2018-Mar-19 21:00N 48°30' W 122°36'0 0.8
2018-Mar-19 20:30N 48°30' W 122°36'3 6.8
2018-Mar-19 20:00N 48°31' W 122°41'3610.5
2018-Mar-19 16:36N 47°55' W 122°33'112.7
2018-Mar-19 16:30N 47°55' W 122°31'611.8
2018-Mar-19 16:00N 47°49' W 122°29'611.0
2018-Mar-19 15:30N 47°44' W 122°28'611.1
2018-Mar-19 15:00N 47°38' W 122°29'510.8
2018-Mar-19 14:30N 47°33' W 122°29'511.0
2018-Mar-19 14:00N 47°27' W 122°31'  
Track history (hours):
 
Tides and Currents Weather Stations Pressure Air Temp Water Temp Dewpoint Dewpoint Depression Visibility Wind Speed Wind Dir Waves Ship Positions

Oceanographic research ship R\V LIBERTY (United States)

Owner: KING COUNTY ENVIRONMENTAL LAB, SEATTLE, WA. More information available from US FCC via Universal Licensing System and Coast Guard Vessel Documentation Center.

Last reported at 2018-Mar-19 21:00 UTC. Time now 2018-May-28 01:29 UTC.
Position N 48°30' W 122°36'.
Warning: this ship's position is months out of date.

Length 15 m; draft 2 m.

Type: Pollution control. MMSI: 367067030.

Date/timePositionNaut miles runAvg speedWind from/ knotsBaromVisibWave heightAir tempDewpointWater temp
2018-Mar-19 21:00N 48°30' W 122°36'0 0.8
2018-Mar-19 20:30N 48°30' W 122°36'3 6.8
2018-Mar-19 20:00N 48°31' W 122°41'3610.5
2018-Mar-19 16:36N 47°55' W 122°33'112.7
2018-Mar-19 16:30N 47°55' W 122°31'611.8
2018-Mar-19 16:00N 47°49' W 122°29'611.0
2018-Mar-19 15:30N 47°44' W 122°28'611.1
2018-Mar-19 15:00N 47°38' W 122°29'510.8
2018-Mar-19 14:30N 47°33' W 122°29'511.0
2018-Mar-19 14:00N 47°27' W 122°31'  

Dump ship's entire track history